sensor_id;sensor_type;location;lat;lon;timestamp;P1;durP1;ratioP1;P2;durP2;ratioP2
55146;SDS011;41039;49.830;23.988;2023-04-19T00:00:45;11.27;;;6.30;;
55146;SDS011;41039;49.830;23.988;2023-04-19T00:03:11;10.02;;;6.05;;
55146;SDS011;41039;49.830;23.988;2023-04-19T00:05:36;12.98;;;5.50;;
55146;SDS011;41039;49.830;23.988;2023-04-19T00:08:05;7.05;;;4.40;;
55146;SDS011;41039;49.830;23.988;2023-04-19T00:10:30;9.32;;;5.47;;
55146;SDS011;41039;49.830;23.988;2023-04-19T00:12:55;9.57;;;5.43;;
55146;SDS011;41039;49.830;23.988;2023-04-19T00:15:20;11.43;;;5.28;;
55146;SDS011;41039;49.830;23.988;2023-04-19T00:17:46;10.10;;;5.15;;
55146;SDS011;41039;49.830;23.988;2023-04-19T00:20:11;10.60;;;5.10;;
55146;SDS011;41039;49.830;23.988;2023-04-19T00:22:37;10.63;;;5.10;;
55146;SDS011;41039;49.830;23.988;2023-04-19T00:25:02;9.27;;;5.22;;
55146;SDS011;41039;49.830;23.988;2023-04-19T00:27:28;8.90;;;4.90;;
55146;SDS011;41039;49.830;23.988;2023-04-19T00:29:53;10.13;;;5.13;;
55146;SDS011;41039;49.830;23.988;2023-04-19T00:32:18;9.63;;;4.28;;
55146;SDS011;41039;49.830;23.988;2023-04-19T00:34:43;7.97;;;4.38;;
55146;SDS011;41039;49.830;23.988;2023-04-19T00:37:09;5.82;;;3.33;;
55146;SDS011;41039;49.830;23.988;2023-04-19T00:39:35;9.98;;;4.22;;
55146;SDS011;41039;49.830;23.988;2023-04-19T00:42:00;8.90;;;4.60;;
55146;SDS011;41039;49.830;23.988;2023-04-19T00:44:26;7.65;;;3.63;;
55146;SDS011;41039;49.830;23.988;2023-04-19T00:46:51;9.15;;;3.97;;
55146;SDS011;41039;49.830;23.988;2023-04-19T00:49:17;6.65;;;3.60;;
55146;SDS011;41039;49.830;23.988;2023-04-19T00:51:44;7.15;;;3.92;;
55146;SDS011;41039;49.830;23.988;2023-04-19T00:54:11;6.30;;;3.35;;
55146;SDS011;41039;49.830;23.988;2023-04-19T00:56:37;7.82;;;3.50;;
55146;SDS011;41039;49.830;23.988;2023-04-19T00:59:02;8.98;;;4.35;;
55146;SDS011;41039;49.830;23.988;2023-04-19T01:01:28;7.82;;;4.38;;
55146;SDS011;41039;49.830;23.988;2023-04-19T01:03:53;9.43;;;4.40;;
55146;SDS011;41039;49.830;23.988;2023-04-19T01:06:18;6.53;;;3.85;;
55146;SDS011;41039;49.830;23.988;2023-04-19T01:08:44;9.32;;;4.07;;
55146;SDS011;41039;49.830;23.988;2023-04-19T01:11:10;9.07;;;5.07;;
55146;SDS011;41039;49.830;23.988;2023-04-19T01:13:35;8.10;;;4.43;;
55146;SDS011;41039;49.830;23.988;2023-04-19T01:16:00;8.45;;;4.05;;
55146;SDS011;41039;49.830;23.988;2023-04-19T01:18:25;7.90;;;4.00;;
55146;SDS011;41039;49.830;23.988;2023-04-19T01:20:56;8.27;;;3.72;;
55146;SDS011;41039;49.830;23.988;2023-04-19T01:23:22;7.13;;;3.90;;
55146;SDS011;41039;49.830;23.988;2023-04-19T01:25:47;9.15;;;3.72;;
55146;SDS011;41039;49.830;23.988;2023-04-19T01:28:12;10.25;;;4.28;;
55146;SDS011;41039;49.830;23.988;2023-04-19T01:30:37;8.27;;;4.15;;
55146;SDS011;41039;49.830;23.988;2023-04-19T01:33:02;8.90;;;4.55;;
55146;SDS011;41039;49.830;23.988;2023-04-19T01:35:28;8.60;;;4.28;;
55146;SDS011;41039;49.830;23.988;2023-04-19T01:37:53;7.57;;;4.45;;
55146;SDS011;41039;49.830;23.988;2023-04-19T01:40:22;7.57;;;4.07;;
55146;SDS011;41039;49.830;23.988;2023-04-19T01:42:47;8.88;;;5.07;;
55146;SDS011;41039;49.830;23.988;2023-04-19T01:45:12;7.72;;;4.30;;
55146;SDS011;41039;49.830;23.988;2023-04-19T01:47:38;8.80;;;4.53;;
55146;SDS011;41039;49.830;23.988;2023-04-19T01:50:03;9.80;;;4.65;;
55146;SDS011;41039;49.830;23.988;2023-04-19T01:52:28;8.85;;;4.35;;
55146;SDS011;41039;49.830;23.988;2023-04-19T01:54:53;8.48;;;4.45;;
55146;SDS011;41039;49.830;23.988;2023-04-19T01:57:19;11.13;;;4.40;;
55146;SDS011;41039;49.830;23.988;2023-04-19T01:59:44;9.20;;;4.88;;
55146;SDS011;41039;49.830;23.988;2023-04-19T02:02:09;17.58;;;6.00;;
55146;SDS011;41039;49.830;23.988;2023-04-19T02:04:34;10.38;;;6.00;;
55146;SDS011;41039;49.830;23.988;2023-04-19T02:07:00;9.25;;;5.75;;
55146;SDS011;41039;49.830;23.988;2023-04-19T02:09:25;10.80;;;6.15;;
55146;SDS011;41039;49.830;23.988;2023-04-19T02:11:50;9.82;;;6.18;;
55146;SDS011;41039;49.830;23.988;2023-04-19T02:14:15;10.65;;;5.43;;
55146;SDS011;41039;49.830;23.988;2023-04-19T02:16:40;8.65;;;5.88;;
55146;SDS011;41039;49.830;23.988;2023-04-19T02:19:06;9.02;;;5.85;;
55146;SDS011;41039;49.830;23.988;2023-04-19T02:21:31;12.48;;;6.40;;
55146;SDS011;41039;49.830;23.988;2023-04-19T02:23:56;9.93;;;6.13;;
55146;SDS011;41039;49.830;23.988;2023-04-19T02:26:22;11.63;;;6.20;;
55146;SDS011;41039;49.830;23.988;2023-04-19T02:28:49;13.32;;;6.20;;
55146;SDS011;41039;49.830;23.988;2023-04-19T02:31:14;9.70;;;6.47;;
55146;SDS011;41039;49.830;23.988;2023-04-19T02:33:40;14.45;;;6.97;;
55146;SDS011;41039;49.830;23.988;2023-04-19T02:36:05;11.85;;;6.38;;
55146;SDS011;41039;49.830;23.988;2023-04-19T02:38:30;10.25;;;5.75;;
55146;SDS011;41039;49.830;23.988;2023-04-19T02:40:56;13.02;;;6.47;;
55146;SDS011;41039;49.830;23.988;2023-04-19T02:43:21;13.85;;;6.78;;
55146;SDS011;41039;49.830;23.988;2023-04-19T02:45:46;11.65;;;7.10;;
55146;SDS011;41039;49.830;23.988;2023-04-19T02:48:11;9.73;;;6.07;;
55146;SDS011;41039;49.830;23.988;2023-04-19T02:50:37;9.05;;;5.78;;
55146;SDS011;41039;49.830;23.988;2023-04-19T02:53:04;7.95;;;5.18;;
55146;SDS011;41039;49.830;23.988;2023-04-19T02:55:31;7.32;;;5.22;;
55146;SDS011;41039;49.830;23.988;2023-04-19T02:57:56;10.25;;;5.35;;
55146;SDS011;41039;49.830;23.988;2023-04-19T03:00:21;8.73;;;4.85;;
55146;SDS011;41039;49.830;23.988;2023-04-19T03:02:46;11.93;;;6.13;;
55146;SDS011;41039;49.830;23.988;2023-04-19T03:05:11;11.32;;;6.18;;
55146;SDS011;41039;49.830;23.988;2023-04-19T03:07:37;12.75;;;5.45;;
55146;SDS011;41039;49.830;23.988;2023-04-19T03:10:02;9.05;;;5.68;;
55146;SDS011;41039;49.830;23.988;2023-04-19T03:12:27;10.68;;;5.00;;
55146;SDS011;41039;49.830;23.988;2023-04-19T03:14:53;9.73;;;5.07;;
55146;SDS011;41039;49.830;23.988;2023-04-19T03:17:18;10.43;;;5.47;;
55146;SDS011;41039;49.830;23.988;2023-04-19T03:19:43;8.38;;;5.35;;
55146;SDS011;41039;49.830;23.988;2023-04-19T03:22:09;9.35;;;4.90;;
55146;SDS011;41039;49.830;23.988;2023-04-19T03:24:34;9.95;;;5.65;;
55146;SDS011;41039;49.830;23.988;2023-04-19T03:26:59;10.18;;;6.15;;
55146;SDS011;41039;49.830;23.988;2023-04-19T03:29:25;9.32;;;6.22;;
55146;SDS011;41039;49.830;23.988;2023-04-19T03:31:50;19.60;;;6.30;;
55146;SDS011;41039;49.830;23.988;2023-04-19T03:34:15;9.25;;;5.43;;
55146;SDS011;41039;49.830;23.988;2023-04-19T03:36:41;6.85;;;4.47;;
55146;SDS011;41039;49.830;23.988;2023-04-19T03:39:06;8.32;;;5.38;;
55146;SDS011;41039;49.830;23.988;2023-04-19T03:41:31;7.88;;;5.32;;
55146;SDS011;41039;49.830;23.988;2023-04-19T03:43:56;9.85;;;5.63;;
55146;SDS011;41039;49.830;23.988;2023-04-19T03:46:24;9.50;;;5.40;;
55146;SDS011;41039;49.830;23.988;2023-04-19T03:48:50;9.10;;;5.45;;
55146;SDS011;41039;49.830;23.988;2023-04-19T03:51:16;9.40;;;5.50;;
55146;SDS011;41039;49.830;23.988;2023-04-19T03:53:41;14.63;;;5.60;;
55146;SDS011;41039;49.830;23.988;2023-04-19T03:56:06;9.48;;;6.20;;
55146;SDS011;41039;49.830;23.988;2023-04-19T03:58:32;15.27;;;6.40;;
55146;SDS011;41039;49.830;23.988;2023-04-19T04:00:57;10.77;;;6.07;;
55146;SDS011;41039;49.830;23.988;2023-04-19T04:03:23;12.63;;;6.10;;
55146;SDS011;41039;49.830;23.988;2023-04-19T04:05:48;14.02;;;7.18;;
55146;SDS011;41039;49.830;23.988;2023-04-19T04:08:13;13.27;;;5.88;;
55146;SDS011;41039;49.830;23.988;2023-04-19T04:10:38;11.30;;;7.35;;
55146;SDS011;41039;49.830;23.988;2023-04-19T04:13:04;14.48;;;6.80;;
55146;SDS011;41039;49.830;23.988;2023-04-19T04:15:29;15.15;;;7.13;;
55146;SDS011;41039;49.830;23.988;2023-04-19T04:17:54;11.20;;;7.40;;
55146;SDS011;41039;49.830;23.988;2023-04-19T04:20:19;11.00;;;6.07;;
55146;SDS011;41039;49.830;23.988;2023-04-19T04:22:45;11.93;;;6.30;;
55146;SDS011;41039;49.830;23.988;2023-04-19T04:25:11;15.80;;;7.68;;
55146;SDS011;41039;49.830;23.988;2023-04-19T04:27:37;11.65;;;5.90;;
55146;SDS011;41039;49.830;23.988;2023-04-19T04:30:03;16.05;;;6.18;;
55146;SDS011;41039;49.830;23.988;2023-04-19T04:32:29;23.08;;;7.45;;
55146;SDS011;41039;49.830;23.988;2023-04-19T04:34:54;14.93;;;7.47;;
55146;SDS011;41039;49.830;23.988;2023-04-19T04:37:20;15.18;;;6.55;;
55146;SDS011;41039;49.830;23.988;2023-04-19T04:39:45;11.48;;;6.32;;
55146;SDS011;41039;49.830;23.988;2023-04-19T04:42:10;14.10;;;6.72;;
55146;SDS011;41039;49.830;23.988;2023-04-19T04:44:36;18.20;;;7.72;;
55146;SDS011;41039;49.830;23.988;2023-04-19T04:47:02;19.67;;;6.75;;
55146;SDS011;41039;49.830;23.988;2023-04-19T04:49:28;15.60;;;6.65;;
55146;SDS011;41039;49.830;23.988;2023-04-19T04:51:53;15.30;;;7.57;;
55146;SDS011;41039;49.830;23.988;2023-04-19T04:54:18;16.55;;;8.02;;
55146;SDS011;41039;49.830;23.988;2023-04-19T04:56:44;16.98;;;7.07;;
55146;SDS011;41039;49.830;23.988;2023-04-19T04:59:09;18.20;;;7.65;;
55146;SDS011;41039;49.830;23.988;2023-04-19T05:01:35;15.32;;;7.43;;
55146;SDS011;41039;49.830;23.988;2023-04-19T05:04:00;14.23;;;6.28;;
55146;SDS011;41039;49.830;23.988;2023-04-19T05:06:25;14.93;;;7.38;;
55146;SDS011;41039;49.830;23.988;2023-04-19T05:08:51;11.93;;;7.25;;
55146;SDS011;41039;49.830;23.988;2023-04-19T05:11:16;18.15;;;7.80;;
55146;SDS011;41039;49.830;23.988;2023-04-19T05:13:41;16.80;;;7.93;;
55146;SDS011;41039;49.830;23.988;2023-04-19T05:16:07;11.73;;;7.25;;
55146;SDS011;41039;49.830;23.988;2023-04-19T05:18:32;14.73;;;7.20;;
55146;SDS011;41039;49.830;23.988;2023-04-19T05:20:57;16.75;;;8.52;;
55146;SDS011;41039;49.830;23.988;2023-04-19T05:23:22;15.00;;;6.93;;
55146;SDS011;41039;49.830;23.988;2023-04-19T05:25:48;13.32;;;7.00;;
55146;SDS011;41039;49.830;23.988;2023-04-19T05:28:13;12.13;;;6.45;;
55146;SDS011;41039;49.830;23.988;2023-04-19T05:30:38;18.27;;;6.35;;
55146;SDS011;41039;49.830;23.988;2023-04-19T05:33:03;14.77;;;7.00;;
55146;SDS011;41039;49.830;23.988;2023-04-19T05:35:29;13.25;;;6.28;;
55146;SDS011;41039;49.830;23.988;2023-04-19T05:37:54;12.18;;;6.32;;
55146;SDS011;41039;49.830;23.988;2023-04-19T05:40:20;19.38;;;7.15;;
55146;SDS011;41039;49.830;23.988;2023-04-19T05:42:46;17.58;;;6.65;;
55146;SDS011;41039;49.830;23.988;2023-04-19T05:45:11;15.23;;;6.75;;
55146;SDS011;41039;49.830;23.988;2023-04-19T05:47:39;17.58;;;6.95;;
55146;SDS011;41039;49.830;23.988;2023-04-19T05:50:04;18.33;;;7.97;;
55146;SDS011;41039;49.830;23.988;2023-04-19T05:52:30;12.20;;;6.55;;
55146;SDS011;41039;49.830;23.988;2023-04-19T05:54:55;12.45;;;6.43;;
55146;SDS011;41039;49.830;23.988;2023-04-19T05:57:21;14.00;;;7.70;;
55146;SDS011;41039;49.830;23.988;2023-04-19T05:59:46;15.07;;;6.57;;
55146;SDS011;41039;49.830;23.988;2023-04-19T06:02:11;13.07;;;6.57;;
55146;SDS011;41039;49.830;23.988;2023-04-19T06:04:36;16.67;;;7.50;;
55146;SDS011;41039;49.830;23.988;2023-04-19T06:07:01;15.68;;;6.38;;
55146;SDS011;41039;49.830;23.988;2023-04-19T06:09:27;12.45;;;4.72;;
55146;SDS011;41039;49.830;23.988;2023-04-19T06:11:52;13.57;;;5.93;;
55146;SDS011;41039;49.830;23.988;2023-04-19T06:14:18;14.50;;;5.85;;
55146;SDS011;41039;49.830;23.988;2023-04-19T06:16:44;12.48;;;6.28;;
55146;SDS011;41039;49.830;23.988;2023-04-19T06:19:09;21.92;;;8.98;;
55146;SDS011;41039;49.830;23.988;2023-04-19T06:21:34;15.52;;;6.03;;
55146;SDS011;41039;49.830;23.988;2023-04-19T06:24:00;10.45;;;4.90;;
55146;SDS011;41039;49.830;23.988;2023-04-19T06:26:25;12.20;;;5.13;;
55146;SDS011;41039;49.830;23.988;2023-04-19T06:28:50;13.00;;;5.65;;
55146;SDS011;41039;49.830;23.988;2023-04-19T06:31:16;9.98;;;4.95;;
55146;SDS011;41039;49.830;23.988;2023-04-19T06:33:41;10.50;;;3.30;;
55146;SDS011;41039;49.830;23.988;2023-04-19T06:36:06;8.43;;;4.15;;
55146;SDS011;41039;49.830;23.988;2023-04-19T06:38:31;7.00;;;3.15;;
55146;SDS011;41039;49.830;23.988;2023-04-19T06:40:57;11.17;;;3.33;;
55146;SDS011;41039;49.830;23.988;2023-04-19T06:43:22;10.77;;;4.00;;
55146;SDS011;41039;49.830;23.988;2023-04-19T06:45:47;5.90;;;2.72;;
55146;SDS011;41039;49.830;23.988;2023-04-19T06:48:13;7.95;;;3.00;;
55146;SDS011;41039;49.830;23.988;2023-04-19T06:50:38;8.13;;;3.00;;
55146;SDS011;41039;49.830;23.988;2023-04-19T06:53:03;8.60;;;2.40;;
55146;SDS011;41039;49.830;23.988;2023-04-19T06:55:28;8.70;;;3.95;;
55146;SDS011;41039;49.830;23.988;2023-04-19T06:57:54;8.98;;;3.15;;
55146;SDS011;41039;49.830;23.988;2023-04-19T07:00:19;8.00;;;2.45;;
55146;SDS011;41039;49.830;23.988;2023-04-19T07:02:44;7.45;;;2.35;;
55146;SDS011;41039;49.830;23.988;2023-04-19T07:05:10;7.18;;;2.25;;
55146;SDS011;41039;49.830;23.988;2023-04-19T07:07:36;8.50;;;2.35;;
55146;SDS011;41039;49.830;23.988;2023-04-19T07:10:02;6.20;;;2.50;;
55146;SDS011;41039;49.830;23.988;2023-04-19T07:12:27;5.80;;;2.10;;
55146;SDS011;41039;49.830;23.988;2023-04-19T07:14:52;5.38;;;2.15;;
55146;SDS011;41039;49.830;23.988;2023-04-19T07:17:21;5.50;;;2.08;;
55146;SDS011;41039;49.830;23.988;2023-04-19T07:19:46;5.25;;;1.98;;
55146;SDS011;41039;49.830;23.988;2023-04-19T07:22:12;4.20;;;2.25;;
55146;SDS011;41039;49.830;23.988;2023-04-19T07:24:37;5.20;;;2.37;;
55146;SDS011;41039;49.830;23.988;2023-04-19T07:27:05;14.43;;;2.33;;
55146;SDS011;41039;49.830;23.988;2023-04-19T07:29:30;3.47;;;1.90;;
55146;SDS011;41039;49.830;23.988;2023-04-19T07:31:58;8.45;;;2.38;;
55146;SDS011;41039;49.830;23.988;2023-04-19T07:34:25;7.82;;;2.70;;
55146;SDS011;41039;49.830;23.988;2023-04-19T07:36:50;6.07;;;2.17;;
55146;SDS011;41039;49.830;23.988;2023-04-19T07:39:15;4.43;;;1.97;;
55146;SDS011;41039;49.830;23.988;2023-04-19T07:41:40;6.10;;;2.50;;
55146;SDS011;41039;49.830;23.988;2023-04-19T07:44:06;8.03;;;2.10;;
55146;SDS011;41039;49.830;23.988;2023-04-19T07:46:31;5.73;;;2.07;;
55146;SDS011;41039;49.830;23.988;2023-04-19T07:48:56;12.55;;;2.33;;
55146;SDS011;41039;49.830;23.988;2023-04-19T07:51:21;6.95;;;2.38;;
55146;SDS011;41039;49.830;23.988;2023-04-19T07:53:48;5.25;;;2.40;;
55146;SDS011;41039;49.830;23.988;2023-04-19T07:56:14;6.15;;;2.33;;
55146;SDS011;41039;49.830;23.988;2023-04-19T07:58:40;8.10;;;3.25;;
55146;SDS011;41039;49.830;23.988;2023-04-19T08:01:06;5.50;;;2.45;;
55146;SDS011;41039;49.830;23.988;2023-04-19T08:03:34;3.50;;;2.10;;
55146;SDS011;41039;49.830;23.988;2023-04-19T08:06:01;9.23;;;2.83;;
55146;SDS011;41039;49.830;23.988;2023-04-19T08:08:26;7.47;;;2.38;;
55146;SDS011;41039;49.830;23.988;2023-04-19T08:10:52;7.03;;;2.35;;
55146;SDS011;41039;49.830;23.988;2023-04-19T08:13:19;8.05;;;3.63;;
55146;SDS011;41039;49.830;23.988;2023-04-19T08:15:44;6.90;;;2.35;;
55146;SDS011;41039;49.830;23.988;2023-04-19T08:18:09;8.80;;;2.80;;
55146;SDS011;41039;49.830;23.988;2023-04-19T08:20:35;6.43;;;2.22;;
55146;SDS011;41039;49.830;23.988;2023-04-19T08:23:00;6.50;;;2.70;;
55146;SDS011;41039;49.830;23.988;2023-04-19T08:25:26;6.55;;;2.70;;
55146;SDS011;41039;49.830;23.988;2023-04-19T08:27:52;11.45;;;2.92;;
55146;SDS011;41039;49.830;23.988;2023-04-19T08:30:18;6.28;;;2.38;;
55146;SDS011;41039;49.830;23.988;2023-04-19T08:32:43;4.80;;;2.70;;
55146;SDS011;41039;49.830;23.988;2023-04-19T08:35:08;9.73;;;2.80;;
55146;SDS011;41039;49.830;23.988;2023-04-19T08:37:34;9.27;;;2.75;;
55146;SDS011;41039;49.830;23.988;2023-04-19T08:39:59;7.28;;;2.50;;
55146;SDS011;41039;49.830;23.988;2023-04-19T08:42:24;7.38;;;2.38;;
55146;SDS011;41039;49.830;23.988;2023-04-19T08:44:50;6.22;;;2.53;;
55146;SDS011;41039;49.830;23.988;2023-04-19T08:47:16;3.47;;;2.25;;
55146;SDS011;41039;49.830;23.988;2023-04-19T08:49:41;7.35;;;2.50;;
55146;SDS011;41039;49.830;23.988;2023-04-19T08:52:07;19.67;;;3.47;;
55146;SDS011;41039;49.830;23.988;2023-04-19T08:54:34;7.03;;;2.42;;
55146;SDS011;41039;49.830;23.988;2023-04-19T08:56:59;4.50;;;2.30;;
55146;SDS011;41039;49.830;23.988;2023-04-19T08:59:26;7.78;;;2.58;;
55146;SDS011;41039;49.830;23.988;2023-04-19T09:01:51;4.43;;;1.92;;
55146;SDS011;41039;49.830;23.988;2023-04-19T09:04:16;6.68;;;2.38;;
55146;SDS011;41039;49.830;23.988;2023-04-19T09:06:41;9.05;;;3.85;;
55146;SDS011;41039;49.830;23.988;2023-04-19T09:11:38;6.43;;;2.58;;
55146;SDS011;41039;49.830;23.988;2023-04-19T09:14:10;7.27;;;2.73;;
55146;SDS011;41039;49.830;23.988;2023-04-19T09:16:35;5.72;;;2.55;;
55146;SDS011;41039;49.830;23.988;2023-04-19T09:19:04;7.97;;;2.55;;
55146;SDS011;41039;49.830;23.988;2023-04-19T09:21:30;10.95;;;2.67;;
55146;SDS011;41039;49.830;23.988;2023-04-19T09:23:58;4.60;;;2.47;;
55146;SDS011;41039;49.830;23.988;2023-04-19T09:26:24;9.13;;;2.47;;
55146;SDS011;41039;49.830;23.988;2023-04-19T09:29:06;7.13;;;3.13;;
55146;SDS011;41039;49.830;23.988;2023-04-19T09:31:33;4.38;;;2.00;;
55146;SDS011;41039;49.830;23.988;2023-04-19T09:34:14;11.93;;;3.30;;
55146;SDS011;41039;49.830;23.988;2023-04-19T09:36:40;7.78;;;2.97;;
55146;SDS011;41039;49.830;23.988;2023-04-19T09:39:05;5.10;;;2.85;;
55146;SDS011;41039;49.830;23.988;2023-04-19T09:41:31;6.60;;;2.97;;
55146;SDS011;41039;49.830;23.988;2023-04-19T09:44:10;12.48;;;4.72;;
55146;SDS011;41039;49.830;23.988;2023-04-19T09:46:36;17.20;;;4.43;;
55146;SDS011;41039;49.830;23.988;2023-04-19T09:51:47;7.28;;;2.58;;
55146;SDS011;41039;49.830;23.988;2023-04-19T09:54:14;4.90;;;2.20;;
55146;SDS011;41039;49.830;23.988;2023-04-19T09:56:39;8.27;;;2.58;;
55146;SDS011;41039;49.830;23.988;2023-04-19T09:59:05;7.68;;;2.70;;
55146;SDS011;41039;49.830;23.988;2023-04-19T10:01:38;7.85;;;2.22;;
55146;SDS011;41039;49.830;23.988;2023-04-19T10:04:06;4.68;;;2.03;;
55146;SDS011;41039;49.830;23.988;2023-04-19T10:06:34;12.85;;;2.78;;
55146;SDS011;41039;49.830;23.988;2023-04-19T10:09:00;6.82;;;2.20;;
55146;SDS011;41039;49.830;23.988;2023-04-19T10:11:28;4.10;;;2.10;;
55146;SDS011;41039;49.830;23.988;2023-04-19T10:13:56;7.35;;;2.70;;
55146;SDS011;41039;49.830;23.988;2023-04-19T10:16:21;7.47;;;2.10;;
55146;SDS011;41039;49.830;23.988;2023-04-19T10:18:49;8.95;;;1.63;;
55146;SDS011;41039;49.830;23.988;2023-04-19T10:21:16;5.68;;;2.33;;
55146;SDS011;41039;49.830;23.988;2023-04-19T10:23:42;7.75;;;2.38;;
55146;SDS011;41039;49.830;23.988;2023-04-19T10:26:08;8.55;;;3.63;;
55146;SDS011;41039;49.830;23.988;2023-04-19T10:28:34;12.25;;;2.85;;
55146;SDS011;41039;49.830;23.988;2023-04-19T10:31:00;5.15;;;1.88;;
55146;SDS011;41039;49.830;23.988;2023-04-19T10:33:29;8.50;;;2.00;;
55146;SDS011;41039;49.830;23.988;2023-04-19T10:35:55;3.90;;;1.80;;
55146;SDS011;41039;49.830;23.988;2023-04-19T10:38:34;6.47;;;2.13;;
55146;SDS011;41039;49.830;23.988;2023-04-19T10:41:00;6.15;;;1.98;;
55146;SDS011;41039;49.830;23.988;2023-04-19T10:43:32;4.03;;;1.60;;
55146;SDS011;41039;49.830;23.988;2023-04-19T10:46:04;4.30;;;1.40;;
55146;SDS011;41039;49.830;23.988;2023-04-19T10:48:30;4.68;;;2.10;;
55146;SDS011;41039;49.830;23.988;2023-04-19T10:54:06;9.13;;;2.28;;
55146;SDS011;41039;49.830;23.988;2023-04-19T10:56:13;9.52;;;1.73;;
55146;SDS011;41039;49.830;23.988;2023-04-19T11:01:53;11.30;;;3.00;;
55146;SDS011;41039;49.830;23.988;2023-04-19T11:04:22;3.58;;;1.70;;
55146;SDS011;41039;49.830;23.988;2023-04-19T11:09:29;7.63;;;2.10;;
55146;SDS011;41039;49.830;23.988;2023-04-19T11:11:57;7.30;;;2.58;;
55146;SDS011;41039;49.830;23.988;2023-04-19T11:14:22;16.83;;;5.13;;
55146;SDS011;41039;49.830;23.988;2023-04-19T11:16:48;9.90;;;2.28;;
55146;SDS011;41039;49.830;23.988;2023-04-19T11:19:16;5.82;;;2.38;;
55146;SDS011;41039;49.830;23.988;2023-04-19T11:21:43;5.18;;;2.28;;
55146;SDS011;41039;49.830;23.988;2023-04-19T11:24:09;5.57;;;1.70;;
55146;SDS011;41039;49.830;23.988;2023-04-19T11:26:34;4.75;;;1.65;;
55146;SDS011;41039;49.830;23.988;2023-04-19T11:29:00;6.38;;;1.75;;
55146;SDS011;41039;49.830;23.988;2023-04-19T11:31:31;5.07;;;1.98;;
55146;SDS011;41039;49.830;23.988;2023-04-19T11:33:59;7.57;;;2.45;;
55146;SDS011;41039;49.830;23.988;2023-04-19T11:36:25;4.53;;;1.70;;
55146;SDS011;41039;49.830;23.988;2023-04-19T11:38:51;4.60;;;2.10;;
55146;SDS011;41039;49.830;23.988;2023-04-19T11:41:16;5.50;;;2.20;;
55146;SDS011;41039;49.830;23.988;2023-04-19T11:43:41;5.07;;;1.75;;
55146;SDS011;41039;49.830;23.988;2023-04-19T11:46:12;3.50;;;1.88;;
55146;SDS011;41039;49.830;23.988;2023-04-19T11:48:38;6.18;;;3.33;;
55146;SDS011;41039;49.830;23.988;2023-04-19T11:51:03;8.98;;;2.20;;
55146;SDS011;41039;49.830;23.988;2023-04-19T11:53:29;5.55;;;2.03;;
55146;SDS011;41039;49.830;23.988;2023-04-19T11:55:56;6.88;;;1.83;;
55146;SDS011;41039;49.830;23.988;2023-04-19T11:58:29;5.95;;;1.63;;
55146;SDS011;41039;49.830;23.988;2023-04-19T12:00:56;4.10;;;1.75;;
55146;SDS011;41039;49.830;23.988;2023-04-19T12:03:24;6.43;;;2.22;;
55146;SDS011;41039;49.830;23.988;2023-04-19T12:05:53;4.90;;;1.85;;
55146;SDS011;41039;49.830;23.988;2023-04-19T12:08:28;8.18;;;2.28;;
55146;SDS011;41039;49.830;23.988;2023-04-19T12:10:55;6.43;;;1.90;;
55146;SDS011;41039;49.830;23.988;2023-04-19T12:13:21;4.75;;;1.67;;
55146;SDS011;41039;49.830;23.988;2023-04-19T12:15:46;9.02;;;3.08;;
55146;SDS011;41039;49.830;23.988;2023-04-19T12:18:13;11.50;;;2.22;;
55146;SDS011;41039;49.830;23.988;2023-04-19T12:20:42;10.82;;;2.58;;
55146;SDS011;41039;49.830;23.988;2023-04-19T12:23:08;5.65;;;2.00;;
55146;SDS011;41039;49.830;23.988;2023-04-19T12:25:35;7.93;;;2.10;;
55146;SDS011;41039;49.830;23.988;2023-04-19T12:28:01;8.98;;;2.28;;
55146;SDS011;41039;49.830;23.988;2023-04-19T12:30:27;9.25;;;2.97;;
55146;SDS011;41039;49.830;23.988;2023-04-19T12:32:56;7.25;;;2.33;;
55146;SDS011;41039;49.830;23.988;2023-04-19T12:35:23;8.38;;;2.60;;
55146;SDS011;41039;49.830;23.988;2023-04-19T12:37:49;9.02;;;3.17;;
55146;SDS011;41039;49.830;23.988;2023-04-19T12:40:14;6.55;;;2.20;;
55146;SDS011;41039;49.830;23.988;2023-04-19T12:42:39;9.52;;;3.55;;
55146;SDS011;41039;49.830;23.988;2023-04-19T12:45:05;6.30;;;2.25;;
55146;SDS011;41039;49.830;23.988;2023-04-19T12:47:30;6.82;;;2.17;;
55146;SDS011;41039;49.830;23.988;2023-04-19T12:49:56;6.75;;;2.10;;
55146;SDS011;41039;49.830;23.988;2023-04-19T12:52:21;8.63;;;2.50;;
55146;SDS011;41039;49.830;23.988;2023-04-19T12:54:47;6.57;;;2.45;;
55146;SDS011;41039;49.830;23.988;2023-04-19T12:57:12;10.30;;;3.17;;
55146;SDS011;41039;49.830;23.988;2023-04-19T12:59:37;8.60;;;2.40;;
55146;SDS011;41039;49.830;23.988;2023-04-19T13:02:02;7.18;;;1.65;;
55146;SDS011;41039;49.830;23.988;2023-04-19T13:04:28;14.98;;;2.60;;
55146;SDS011;41039;49.830;23.988;2023-04-19T13:06:53;6.10;;;2.60;;
55146;SDS011;41039;49.830;23.988;2023-04-19T13:09:18;6.67;;;2.17;;
55146;SDS011;41039;49.830;23.988;2023-04-19T13:11:43;7.15;;;3.10;;
55146;SDS011;41039;49.830;23.988;2023-04-19T13:14:09;10.73;;;3.28;;
55146;SDS011;41039;49.830;23.988;2023-04-19T13:16:34;7.30;;;2.47;;
55146;SDS011;41039;49.830;23.988;2023-04-19T13:19:00;6.63;;;2.83;;
55146;SDS011;41039;49.830;23.988;2023-04-19T13:21:25;6.00;;;2.47;;
55146;SDS011;41039;49.830;23.988;2023-04-19T13:23:51;15.65;;;6.05;;
55146;SDS011;41039;49.830;23.988;2023-04-19T13:26:17;7.80;;;2.17;;
55146;SDS011;41039;49.830;23.988;2023-04-19T13:28:42;16.85;;;3.50;;
55146;SDS011;41039;49.830;23.988;2023-04-19T13:31:07;6.07;;;3.03;;
55146;SDS011;41039;49.830;23.988;2023-04-19T13:33:33;7.00;;;2.58;;
55146;SDS011;41039;49.830;23.988;2023-04-19T13:35:58;8.30;;;3.05;;
55146;SDS011;41039;49.830;23.988;2023-04-19T13:38:23;7.55;;;2.50;;
55146;SDS011;41039;49.830;23.988;2023-04-19T13:40:49;7.22;;;2.40;;
55146;SDS011;41039;49.830;23.988;2023-04-19T13:43:15;9.75;;;4.00;;
55146;SDS011;41039;49.830;23.988;2023-04-19T13:45:40;8.70;;;2.22;;
55146;SDS011;41039;49.830;23.988;2023-04-19T13:48:05;13.13;;;3.10;;
55146;SDS011;41039;49.830;23.988;2023-04-19T13:50:30;4.05;;;2.30;;
55146;SDS011;41039;49.830;23.988;2023-04-19T13:52:55;9.43;;;3.60;;
55146;SDS011;41039;49.830;23.988;2023-04-19T13:55:21;10.00;;;3.20;;
55146;SDS011;41039;49.830;23.988;2023-04-19T13:57:46;10.77;;;5.30;;
55146;SDS011;41039;49.830;23.988;2023-04-19T14:00:11;10.27;;;2.88;;
55146;SDS011;41039;49.830;23.988;2023-04-19T14:02:37;6.43;;;2.40;;
55146;SDS011;41039;49.830;23.988;2023-04-19T14:05:02;6.95;;;3.25;;
55146;SDS011;41039;49.830;23.988;2023-04-19T14:07:28;9.52;;;2.00;;
55146;SDS011;41039;49.830;23.988;2023-04-19T14:09:53;9.52;;;2.90;;
55146;SDS011;41039;49.830;23.988;2023-04-19T14:12:19;8.80;;;2.70;;
55146;SDS011;41039;49.830;23.988;2023-04-19T14:14:44;9.75;;;3.03;;
55146;SDS011;41039;49.830;23.988;2023-04-19T14:17:09;8.40;;;2.33;;
55146;SDS011;41039;49.830;23.988;2023-04-19T14:19:35;5.77;;;2.07;;
55146;SDS011;41039;49.830;23.988;2023-04-19T14:22:00;15.63;;;5.50;;
55146;SDS011;41039;49.830;23.988;2023-04-19T14:24:26;8.32;;;3.17;;
55146;SDS011;41039;49.830;23.988;2023-04-19T14:26:51;7.93;;;2.67;;
55146;SDS011;41039;49.830;23.988;2023-04-19T14:29:17;12.02;;;4.03;;
55146;SDS011;41039;49.830;23.988;2023-04-19T14:31:42;10.30;;;4.72;;
55146;SDS011;41039;49.830;23.988;2023-04-19T14:34:07;8.75;;;3.55;;
55146;SDS011;41039;49.830;23.988;2023-04-19T14:36:32;8.67;;;3.30;;